NCAR-RAP Real-Time Weather Data

Output produced by METARs form (17 December 2018  06:53 UTC)
found at http://weather.rap.ucar.edu/surface/
 
RJNT 170600Z 22008KT 9999 -SHRA FEW010 BKN035 09/06 Q1007
RJNT 170500Z 24007KT 9999 -SHRA FEW010 SCT030 BKN050 09/07 Q1007
RJNT 170400Z 22006KT 190V270 9999 VCSH FEW010 SCT030 BKN080 12/M01 Q1007
RJNT 170334Z 23010KT 9999 VCSH FEW010 SCT030 BKN080 12/// Q1007 RMK 1CU010 3CU030 6AC080 A2976
RJNT 170300Z 15003KT 040V220 9999 VCSH FEW010 SCT030 BKN080 12/04 Q1008
RJNT 170200Z 16003KT 100V200 9999 -SHRA FEW010 SCT030 BKN050 10/01 Q1009
RJNT 170100Z 26006KT 9999 -SHRA FEW008 BKN030 BKN050 09/00 Q1010
RJNT 170000Z VRB02KT 9999 VCSH FEW008 SCT030 BKN050 08/03 Q1010
RJNT 162300Z 29004KT 230V320 9999 VCSH FEW008 BKN030 BKN080 08/01 Q1010
RJNT 162200Z 20005KT 9999 -SHRA FEW010 SCT030 BKN050 08/00 Q1010
RJNT 162110Z 18005KT 9999 -SHRA FEW010 SCT030 BKN050 08/M00 Q1010 RMK 1CU010 4CU030 7SC050 A2984
RJNT 161200Z 19013KT 9999 -SHRA FEW030 BKN050 11/M02 Q1015
RJNT 161100Z 19013KT 9999 VCSH FEW040 BKN080 11/M02 Q1015
RJNT 161000Z 18012KT 9999 FEW040 BKN080 11/M04 Q1016
RJNT 160900Z 19015KT 9999 FEW040 BKN080 11/M05 Q1017
RJNT 160800Z 18016G26KT 9999 FEW040 BKN090 BKN/// 11/M06 Q1016
RJNT 160700Z 19014KT 9999 FEW040 BKN100 BKN/// 12/M07 Q1017
RJNT 160600Z 18014G25KT 150V210 9999 FEW030 SCT130 BKN/// 12/M07 Q1017
RJNT 160500Z 19014G25KT 9999 FEW030 BKN/// 12/M08 Q1018
RJNT 160440Z 18016G26KT 9999 FEW030 SCT140 BKN/// 12/M08 Q1018 RMK 1CU030 3AC140 A3006
RJNT 160400Z 19012KT 9999 FEW030 SCT160 BKN/// 12/M06 Q1019
RJNT 160300Z 23004KT 180V270 9999 FEW030 SCT160 BKN/// 10/M05 Q1020
RJNT 160200Z VRB02KT 9999 FEW030 BKN/// 06/M07 Q1022
RJNT 160100Z VRB02KT 9999 FEW030 SCT150 BKN/// 05/M04 Q1023
RJNT 160000Z VRB02KT 9999 FEW030 BKN/// 02/M06 Q1024
RJNT 151200Z 16003KT 120V190 9999 FEW030 01/M07 Q1030
RJNT 151100Z 19002KT 9999 FEW030 SCT/// 00/M06 Q1029
RJNT 151000Z VRB01KT 9999 FEW030 SCT/// 01/M06 Q1029
RJNT 150900Z VRB02KT 9999 FEW030 02/M06 Q1030
RJNT 150800Z 23003KT 9999 FEW030 03/M05 Q1029
RJNT 150700Z 25001KT 9999 FEW030 04/M05 Q1029
RJNT 150600Z 23005KT 9999 FEW030 SCT050 05/M07 Q1029
RJNT 150500Z 24003KT 200V280 9999 FEW020 SCT050 05/M08 Q1029
RJNT 150400Z 22005KT 180V260 9999 FEW010 SCT030 BKN070 05/M07 Q1029
RJNT 150300Z 21005KT 180V250 9999 VCSH FEW010 SCT060 BKN070 05/M06 Q1030
RJNT 150200Z 21005KT 9999 VCSH FEW010 SCT050 BKN060 04/M06 Q1030
RJNT 150100Z 24004KT 200V290 9999 VCSH FEW010 SCT050 BKN070 03/M04 Q1031
RJNT 150000Z 23005KT 9999 -SHSN FEW010 BKN050 03/M04 Q1031
RJNT 142300Z 21006KT 9999 -SHSN FEW010 BKN050 02/M03 Q1030
RJNT 142200Z 19003KT 170V230 9999 -SHSN FEW020 BKN050 02/M04 Q1030
RJNT 142110Z 22006KT 9999 -SHSN FEW010 SCT030 BKN040 01/M03 Q1029 RMK 1CU010 3CU030 6CU040 A3041